createdAt,value
2022-09-13T00:01:03.111Z,29.08
2022-09-13T00:03:40.653Z,28.90
2022-09-13T00:06:19.382Z,33.55
2022-09-13T00:08:48.046Z,50.70
2022-09-13T00:11:18.796Z,36.22
2022-09-13T00:13:46.820Z,33.60
2022-09-13T00:16:16.310Z,32.60
2022-09-13T00:18:43.860Z,36.17
2022-09-13T00:21:14.177Z,36.45
2022-09-13T00:23:47.352Z,51.17
2022-09-13T00:26:18.517Z,38.43
2022-09-13T00:28:50.595Z,35.05
2022-09-13T00:31:18.619Z,43.70
2022-09-13T00:33:45.929Z,38.78
2022-09-13T00:36:15.483Z,43.20
2022-09-13T00:38:43.687Z,39.63
2022-09-13T00:41:14.765Z,33.97
2022-09-13T00:43:57.413Z,36.60
2022-09-13T00:46:44.795Z,34.22
2022-09-13T00:49:12.350Z,32.00
2022-09-13T00:51:41.735Z,32.05
2022-09-13T00:54:09.550Z,37.45
2022-09-13T00:56:41.535Z,33.38
2022-09-13T00:59:13.802Z,28.60
2022-09-13T01:01:46.116Z,29.70
2022-09-13T01:04:13.728Z,39.45
2022-09-13T01:06:41.748Z,33.53
2022-09-13T01:09:11.383Z,28.70
2022-09-13T01:11:50.307Z,26.75
2022-09-13T01:14:19.195Z,26.67
2022-09-13T01:16:48.004Z,30.58
2022-09-13T01:19:15.914Z,36.60
2022-09-13T01:22:20.969Z,41.47
2022-09-13T01:25:14.433Z,36.22
2022-09-13T01:28:19.163Z,33.13
2022-09-13T01:30:59.998Z,41.05
2022-09-13T01:33:52.779Z,37.97
2022-09-13T01:36:24.209Z,37.95
2022-09-13T01:39:06.160Z,40.15
2022-09-13T01:41:36.580Z,44.78
2022-09-13T01:44:22.548Z,30.35
2022-09-13T01:46:58.896Z,38.65
2022-09-13T01:49:34.348Z,31.80
2022-09-13T01:52:08.763Z,33.10
2022-09-13T01:55:13.069Z,34.05
2022-09-13T01:57:59.494Z,32.30
2022-09-13T02:00:27.977Z,37.83
2022-09-13T02:03:07.250Z,33.60
2022-09-13T02:05:42.755Z,37.15
2022-09-13T02:08:19.736Z,40.63
2022-09-13T02:11:11.582Z,25.45
2022-09-13T02:13:43.419Z,26.38
2022-09-13T02:16:20.403Z,24.95
2022-09-13T02:18:51.945Z,30.15
2022-09-13T02:21:27.235Z,26.63
2022-09-13T02:23:59.818Z,23.65
2022-09-13T02:26:28.980Z,22.63
2022-09-13T02:28:58.806Z,22.75
2022-09-13T02:31:33.416Z,22.85
2022-09-13T02:34:05.059Z,33.30
2022-09-13T02:36:36.398Z,29.02
2022-09-13T02:39:07.175Z,37.08
2022-09-13T02:41:46.387Z,39.05
2022-09-13T02:44:32.071Z,47.95
2022-09-13T02:47:30.144Z,42.38
2022-09-13T02:50:21.965Z,45.97
2022-09-13T02:52:59.155Z,38.13
2022-09-13T02:55:51.074Z,45.55
2022-09-13T02:58:31.087Z,61.85
2022-09-13T03:00:58.796Z,26.23
2022-09-13T03:03:26.115Z,50.47
2022-09-13T03:05:54.096Z,30.83
2022-09-13T03:08:22.434Z,39.33
2022-09-13T03:11:14.679Z,43.75
2022-09-13T03:14:13.235Z,31.35
2022-09-13T03:17:18.153Z,31.27
2022-09-13T03:20:19.305Z,33.88
2022-09-13T03:23:10.758Z,31.45
2022-09-13T03:26:15.768Z,34.88
2022-09-13T03:28:51.868Z,26.20
2022-09-13T03:31:28.908Z,23.70
2022-09-13T03:33:59.069Z,24.13
2022-09-13T03:36:43.062Z,25.15
2022-09-13T03:39:15.383Z,20.02
2022-09-13T03:41:47.135Z,22.58
2022-09-13T03:44:17.249Z,19.88
2022-09-13T03:46:48.108Z,19.42
2022-09-13T03:49:17.435Z,21.95
2022-09-13T03:51:47.756Z,20.95
2022-09-13T03:54:20.310Z,26.10
2022-09-13T03:57:21.488Z,21.17
2022-09-13T03:59:51.654Z,18.52
2022-09-13T04:02:19.590Z,19.52
2022-09-13T04:04:47.285Z,18.70
2022-09-13T04:07:17.262Z,17.75
2022-09-13T04:09:46.052Z,21.63
2022-09-13T04:12:15.239Z,23.42
2022-09-13T04:14:46.415Z,21.45
2022-09-13T04:17:14.302Z,18.98
2022-09-13T04:19:42.244Z,23.23
2022-09-13T04:22:09.825Z,26.20
2022-09-13T04:24:39.014Z,31.10
2022-09-13T04:27:07.988Z,33.17
2022-09-13T04:29:35.760Z,31.23
2022-09-13T04:32:50.872Z,28.75
2022-09-13T04:35:20.023Z,28.15
2022-09-13T04:37:47.478Z,32.38
2022-09-13T04:40:15.436Z,30.85
2022-09-13T04:42:46.189Z,28.10
2022-09-13T04:45:14.320Z,29.90
2022-09-13T04:47:41.653Z,35.25
2022-09-13T04:50:10.032Z,28.98
2022-09-13T04:52:37.263Z,33.10
2022-09-13T04:55:05.029Z,26.25
2022-09-13T04:57:33.056Z,30.67
2022-09-13T05:00:00.342Z,34.28
2022-09-13T05:02:27.687Z,35.45
2022-09-13T05:04:56.366Z,29.02
2022-09-13T05:07:23.618Z,35.35
2022-09-13T05:09:50.835Z,27.17
2022-09-13T05:12:18.527Z,32.45
2022-09-13T05:14:45.956Z,26.23
2022-09-13T05:17:13.632Z,25.70
2022-09-13T05:19:41.524Z,27.20
2022-09-13T05:22:09.084Z,32.38
2022-09-13T05:24:36.242Z,34.33
2022-09-13T05:27:03.913Z,35.28
2022-09-13T05:29:31.184Z,29.35
2022-09-13T05:31:58.912Z,29.83
2022-09-13T05:34:26.484Z,28.00
2022-09-13T05:36:54.561Z,30.80
2022-09-13T05:39:39.837Z,26.65
2022-09-13T05:42:10.331Z,30.25
2022-09-13T05:44:37.422Z,38.63
2022-09-13T05:47:05.682Z,36.05
2022-09-13T05:49:33.117Z,22.70
2022-09-13T05:52:00.439Z,25.33
2022-09-13T05:54:27.918Z,21.55
2022-09-13T05:56:57.745Z,25.80
2022-09-13T05:59:25.195Z,26.90
2022-09-13T06:01:52.493Z,27.45
2022-09-13T06:04:20.390Z,30.67
2022-09-13T06:06:47.842Z,28.63
2022-09-13T06:09:15.312Z,31.55
2022-09-13T06:11:42.972Z,34.55
2022-09-13T06:14:10.400Z,38.10
2022-09-13T06:16:37.730Z,35.50
2022-09-13T06:19:05.639Z,36.05
2022-09-13T06:21:33.167Z,39.15
2022-09-13T06:24:00.681Z,36.28
2022-09-13T06:26:28.518Z,36.20
2022-09-13T06:28:57.943Z,38.65
2022-09-13T06:31:28.058Z,37.72
2022-09-13T06:34:02.542Z,40.78
2022-09-13T06:36:30.029Z,36.50
2022-09-13T06:39:00.585Z,43.42
2022-09-13T06:41:28.508Z,42.17
2022-09-13T06:43:58.616Z,41.75
2022-09-13T06:46:29.023Z,41.10
2022-09-13T06:48:59.810Z,43.05
2022-09-13T06:51:29.799Z,36.88
2022-09-13T06:53:57.680Z,32.63
2022-09-13T06:56:27.083Z,28.10
2022-09-13T06:58:58.140Z,25.73
2022-09-13T07:01:28.351Z,23.08
2022-09-13T07:04:06.027Z,20.38
2022-09-13T07:06:36.454Z,19.77
2022-09-13T07:09:05.893Z,19.65
2022-09-13T07:11:36.646Z,20.00
2022-09-13T07:14:04.565Z,17.35
2022-09-13T07:16:35.492Z,17.95
2022-09-13T07:19:07.942Z,18.70
2022-09-13T07:21:35.841Z,19.83
2022-09-13T07:24:04.606Z,17.33
2022-09-13T07:26:32.018Z,17.60
2022-09-13T07:29:01.901Z,17.05
2022-09-13T07:31:35.213Z,16.58
2022-09-13T07:34:05.722Z,16.23
2022-09-13T07:36:35.488Z,15.38
2022-09-13T07:39:04.322Z,15.48
2022-09-13T07:41:32.851Z,15.25
2022-09-13T07:44:01.980Z,15.05
2022-09-13T07:46:33.849Z,14.38
2022-09-13T07:49:02.297Z,14.10
2022-09-13T07:51:32.101Z,14.48
2022-09-13T07:54:02.457Z,13.35
2022-09-13T07:56:38.373Z,10.23
2022-09-13T07:59:07.310Z,9.65
2022-09-13T08:01:40.755Z,11.00
2022-09-13T08:06:37.982Z,7.07
2022-09-13T08:09:07.178Z,7.65
2022-09-13T08:11:39.797Z,7.28
2022-09-13T08:14:09.342Z,6.00
2022-09-13T08:16:37.392Z,5.28
2022-09-13T08:19:05.173Z,4.72
2022-09-13T08:21:38.051Z,5.10
2022-09-13T08:24:08.894Z,4.88
2022-09-13T08:26:36.964Z,5.68
2022-09-13T08:29:06.682Z,5.00
2022-09-13T08:31:34.949Z,4.32
2022-09-13T08:34:02.638Z,4.03
2022-09-13T08:36:30.016Z,3.83
2022-09-13T08:39:00.396Z,4.13
2022-09-13T08:41:35.553Z,3.35
2022-09-13T08:44:34.774Z,3.60
2022-09-13T08:47:27.007Z,3.00
2022-09-13T08:50:13.135Z,2.70
2022-09-13T08:53:02.233Z,3.08
2022-09-13T08:55:41.153Z,2.50
2022-09-13T08:58:27.537Z,2.10
2022-09-13T09:01:04.179Z,2.53
2022-09-13T09:03:43.250Z,2.50
2022-09-13T09:06:14.465Z,2.53
2022-09-13T09:08:48.023Z,2.60
2022-09-13T09:11:52.957Z,2.70
2022-09-13T09:14:25.640Z,2.40
2022-09-13T09:17:07.763Z,2.20
2022-09-13T09:19:38.674Z,2.33
2022-09-13T09:22:12.473Z,2.20
2022-09-13T09:24:41.012Z,2.05
2022-09-13T09:27:15.894Z,2.05
2022-09-13T09:29:47.284Z,2.72
2022-09-13T09:32:42.552Z,1.88
2022-09-13T09:35:28.318Z,2.40
2022-09-13T09:38:27.890Z,2.00
2022-09-13T09:40:55.491Z,2.15
2022-09-13T09:43:27.802Z,2.33
2022-09-13T09:45:56.375Z,2.00
2022-09-13T09:48:29.985Z,2.20
2022-09-13T09:50:58.844Z,2.00
2022-09-13T09:53:37.067Z,2.50
2022-09-13T09:56:26.496Z,2.13
2022-09-13T09:58:55.911Z,2.28
2022-09-13T10:01:32.778Z,1.95
2022-09-13T10:04:19.637Z,2.10
2022-09-13T10:06:47.665Z,2.25
2022-09-13T10:09:20.557Z,2.05
2022-09-13T10:11:58.633Z,2.17
2022-09-13T10:14:41.878Z,2.00
2022-09-13T10:17:18.774Z,2.78
2022-09-13T10:20:02.257Z,2.30
2022-09-13T10:25:25.372Z,2.30
2022-09-13T10:27:55.209Z,2.42
2022-09-13T10:30:32.028Z,2.53
2022-09-13T10:32:59.707Z,2.83
2022-09-13T10:35:27.959Z,2.72
2022-09-13T10:37:55.656Z,2.05
2022-09-13T10:40:30.058Z,2.00
2022-09-13T10:42:59.079Z,2.28
2022-09-13T10:45:28.559Z,2.80
2022-09-13T10:48:01.281Z,2.17
2022-09-13T10:50:36.000Z,2.20
2022-09-13T10:53:05.325Z,2.30
2022-09-13T10:55:41.185Z,2.00
2022-09-13T10:58:08.497Z,2.05
2022-09-13T11:00:42.450Z,2.70
2022-09-13T11:03:15.333Z,2.33
2022-09-13T11:06:21.647Z,2.40
2022-09-13T11:09:17.170Z,2.35
2022-09-13T11:12:25.035Z,1.98
2022-09-13T11:15:16.000Z,2.13
2022-09-13T11:18:06.135Z,2.15
2022-09-13T11:20:43.687Z,2.10
2022-09-13T11:23:24.561Z,1.95
2022-09-13T11:25:58.019Z,2.40
2022-09-13T11:28:48.767Z,2.10
2022-09-13T11:31:40.768Z,2.67
2022-09-13T11:34:21.387Z,2.20
2022-09-13T11:37:15.213Z,2.42
2022-09-13T11:40:04.831Z,2.22
2022-09-13T11:42:38.259Z,2.50
2022-09-13T11:45:23.002Z,2.63
2022-09-13T11:48:29.936Z,2.58
2022-09-13T11:51:19.757Z,2.75
2022-09-13T11:54:06.974Z,2.60
2022-09-13T11:56:42.222Z,3.00
2022-09-13T11:59:24.864Z,3.00
2022-09-13T12:04:34.093Z,2.90
2022-09-13T12:07:06.130Z,2.30
2022-09-13T12:09:40.553Z,2.95
2022-09-13T12:12:13.220Z,2.90
2022-09-13T12:15:18.373Z,3.70
2022-09-13T12:17:50.346Z,3.17
2022-09-13T12:20:34.891Z,2.90
2022-09-13T12:23:08.964Z,3.13
2022-09-13T12:26:04.356Z,3.30
2022-09-13T12:28:43.489Z,3.70
2022-09-13T12:31:16.515Z,3.20
2022-09-13T12:33:46.095Z,3.33
2022-09-13T12:36:19.527Z,5.03
2022-09-13T12:39:01.121Z,3.72
2022-09-13T12:41:50.351Z,3.17
2022-09-13T12:44:40.045Z,3.35
2022-09-13T12:47:07.320Z,3.67
2022-09-13T12:49:41.328Z,3.10
2022-09-13T12:52:48.812Z,3.53
2022-09-13T12:55:47.742Z,3.60
2022-09-13T12:58:34.449Z,3.75
2022-09-13T13:01:25.842Z,3.30
2022-09-13T13:04:13.212Z,3.58
2022-09-13T13:06:54.399Z,3.17
2022-09-13T13:09:28.705Z,4.00
2022-09-13T13:11:58.585Z,3.50
2022-09-13T13:14:41.121Z,4.13
2022-09-13T13:17:46.261Z,3.90
2022-09-13T13:20:38.613Z,3.63
2022-09-13T13:23:35.460Z,3.58
2022-09-13T13:26:59.988Z,3.53
2022-09-13T13:29:31.672Z,3.13
2022-09-13T13:32:07.871Z,3.95
2022-09-13T13:34:44.764Z,4.15
2022-09-13T13:37:12.102Z,4.10
2022-09-13T13:39:44.258Z,4.25
2022-09-13T13:42:31.840Z,4.70
2022-09-13T13:45:07.250Z,4.07
2022-09-13T13:47:34.614Z,4.13
2022-09-13T13:50:20.563Z,4.35
2022-09-13T13:52:48.340Z,4.68
2022-09-13T13:55:49.293Z,4.72
2022-09-13T13:58:19.707Z,4.15
2022-09-13T14:00:51.103Z,4.15
2022-09-13T14:03:37.011Z,5.30
2022-09-13T14:06:16.628Z,4.43
2022-09-13T14:11:37.696Z,4.10
2022-09-13T14:14:42.460Z,4.10
2022-09-13T14:17:48.645Z,4.22
2022-09-13T14:20:23.543Z,4.00
2022-09-13T14:25:24.082Z,4.30
2022-09-13T14:30:24.259Z,4.25
2022-09-13T14:32:54.376Z,4.05
2022-09-13T14:35:41.336Z,4.15
2022-09-13T14:38:33.605Z,4.10
2022-09-13T14:41:17.636Z,3.55
2022-09-13T14:43:46.202Z,3.63
2022-09-13T14:46:19.891Z,3.72
2022-09-13T14:48:56.810Z,3.53
2022-09-13T14:51:33.400Z,3.75
2022-09-13T14:54:09.342Z,4.03
2022-09-13T14:56:48.667Z,3.70
2022-09-13T14:59:43.281Z,3.95
2022-09-13T15:02:36.816Z,4.15
2022-09-13T15:05:12.640Z,4.10
2022-09-13T15:07:41.522Z,4.03
2022-09-13T15:10:09.751Z,4.88
2022-09-13T15:12:38.122Z,4.40
2022-09-13T15:15:33.679Z,4.38
2022-09-13T15:18:17.981Z,3.97
2022-09-13T15:20:51.730Z,4.53
2022-09-13T15:23:36.334Z,4.40
2022-09-13T15:26:12.160Z,4.90
2022-09-13T15:28:51.077Z,5.15
2022-09-13T15:31:26.708Z,4.88
2022-09-13T15:34:16.619Z,4.95
2022-09-13T15:36:49.129Z,4.75
2022-09-13T15:39:21.463Z,5.22
2022-09-13T15:41:53.355Z,5.28
2022-09-13T15:44:21.312Z,5.18
2022-09-13T15:46:52.504Z,4.88
2022-09-13T15:49:26.796Z,5.00
2022-09-13T15:52:02.224Z,4.68
2022-09-13T15:54:34.320Z,5.45
2022-09-13T15:57:02.203Z,5.80
2022-09-13T15:59:29.999Z,4.80
2022-09-13T16:01:57.855Z,4.65
2022-09-13T16:04:25.385Z,4.63
2022-09-13T16:06:52.933Z,5.25
2022-09-13T16:09:21.431Z,5.55
2022-09-13T16:11:50.067Z,5.00
2022-09-13T16:14:18.980Z,5.47
2022-09-13T16:16:49.267Z,5.82
2022-09-13T16:19:21.193Z,5.65
2022-09-13T16:21:49.527Z,5.43
2022-09-13T16:24:17.363Z,5.50
2022-09-13T16:26:44.693Z,5.72
2022-09-13T16:29:13.128Z,7.10
2022-09-13T16:31:41.297Z,6.93
2022-09-13T16:34:09.424Z,7.43
2022-09-13T16:36:36.971Z,7.65
2022-09-13T16:39:04.769Z,7.72
2022-09-13T16:41:32.197Z,7.85
2022-09-13T16:44:00.109Z,7.75
2022-09-13T16:46:28.609Z,7.72
2022-09-13T16:48:56.702Z,8.02
2022-09-13T16:51:24.858Z,7.43
2022-09-13T16:53:53.703Z,8.57
2022-09-13T16:56:23.998Z,8.57
2022-09-13T16:58:52.687Z,9.18
2022-09-13T17:01:24.935Z,8.80
2022-09-13T17:03:54.885Z,8.93
2022-09-13T17:06:23.591Z,8.80
2022-09-13T17:08:56.678Z,8.63
2022-09-13T17:11:26.808Z,9.45
2022-09-13T17:13:54.807Z,9.48
2022-09-13T17:16:32.834Z,9.52
2022-09-13T17:19:02.521Z,8.77
2022-09-13T17:21:30.655Z,9.20
2022-09-13T17:23:58.204Z,9.23
2022-09-13T17:26:25.839Z,8.38
2022-09-13T17:28:53.474Z,8.68
2022-09-13T17:31:21.110Z,8.35
2022-09-13T17:33:50.232Z,8.05
2022-09-13T17:36:17.663Z,8.82
2022-09-13T17:38:45.368Z,7.88
2022-09-13T17:41:15.954Z,8.30
2022-09-13T17:43:44.174Z,8.05
2022-09-13T17:46:21.581Z,8.60
2022-09-13T17:48:51.933Z,9.15
2022-09-13T17:51:21.342Z,9.50
2022-09-13T17:53:54.189Z,11.73
2022-09-13T17:58:58.413Z,21.25
2022-09-13T18:01:26.117Z,22.58
2022-09-13T18:03:55.180Z,19.27
2022-09-13T18:06:22.997Z,14.95
2022-09-13T18:08:53.179Z,13.02
2022-09-13T18:11:22.558Z,11.45
2022-09-13T18:13:51.246Z,10.93
2022-09-13T18:16:24.709Z,10.02
2022-09-13T18:18:53.236Z,9.32
2022-09-13T18:21:22.730Z,9.73
2022-09-13T18:23:52.899Z,11.38
2022-09-13T18:26:23.091Z,10.32
2022-09-13T18:29:01.998Z,11.95
2022-09-13T18:31:31.163Z,8.48
2022-09-13T18:34:03.545Z,7.72
2022-09-13T18:36:33.311Z,8.20
2022-09-13T18:39:03.207Z,7.20
2022-09-13T18:41:36.505Z,8.13
2022-09-13T18:44:07.036Z,7.43
2022-09-13T18:46:35.526Z,7.88
2022-09-13T18:49:04.214Z,7.53
2022-09-13T18:51:40.040Z,6.75
2022-09-13T18:54:09.336Z,7.45
2022-09-13T18:56:37.078Z,7.47
2022-09-13T18:59:06.513Z,6.80
2022-09-13T19:01:39.479Z,7.45
2022-09-13T19:04:11.111Z,7.10
2022-09-13T19:06:41.661Z,6.82
2022-09-13T19:09:10.609Z,7.03
2022-09-13T19:11:48.047Z,7.25
2022-09-13T19:14:23.002Z,6.90
2022-09-13T19:16:52.258Z,7.07
2022-09-13T19:19:20.824Z,7.50
2022-09-13T19:21:49.631Z,7.90
2022-09-13T19:24:18.776Z,7.25
2022-09-13T19:26:49.422Z,7.40
2022-09-13T19:29:18.582Z,6.88
2022-09-13T19:31:48.550Z,7.03
2022-09-13T19:34:18.116Z,7.90
2022-09-13T19:36:45.830Z,7.45
2022-09-13T19:39:13.657Z,7.45
2022-09-13T19:41:41.973Z,8.55
2022-09-13T19:44:10.975Z,7.22
2022-09-13T19:46:40.549Z,8.23
2022-09-13T19:49:11.902Z,7.90
2022-09-13T19:51:40.381Z,7.50
2022-09-13T19:54:11.640Z,7.22
2022-09-13T19:56:42.476Z,7.75
2022-09-13T19:59:11.917Z,8.15
2022-09-13T20:01:42.577Z,7.82
2022-09-13T20:04:12.812Z,7.95
2022-09-13T20:06:43.270Z,8.48
2022-09-13T20:09:13.128Z,8.02
2022-09-13T20:11:42.675Z,7.55
2022-09-13T20:14:10.943Z,7.97
2022-09-13T20:16:40.084Z,7.80
2022-09-13T20:19:36.331Z,7.97
2022-09-13T20:21:58.162Z,9.18
2022-09-13T20:24:26.076Z,9.20
2022-09-13T20:26:53.547Z,9.40
2022-09-13T20:29:21.136Z,9.52
2022-09-13T20:31:48.811Z,9.50
2022-09-13T20:34:16.434Z,7.78
2022-09-13T20:36:45.741Z,8.05
2022-09-13T20:39:15.201Z,8.25
2022-09-13T20:41:43.800Z,8.20
2022-09-13T20:44:11.894Z,8.35
2022-09-13T20:46:40.658Z,8.32
2022-09-13T20:49:09.381Z,8.05
2022-09-13T20:51:37.776Z,8.02
2022-09-13T20:54:05.858Z,8.60
2022-09-13T20:56:34.760Z,8.70
2022-09-13T20:59:02.999Z,9.15
2022-09-13T21:01:31.654Z,9.38
2022-09-13T21:03:59.846Z,9.20
2022-09-13T21:06:29.885Z,9.65
2022-09-13T21:09:00.315Z,9.10
2022-09-13T21:11:33.019Z,10.23
2022-09-13T21:14:09.900Z,11.70
2022-09-13T21:16:40.999Z,9.50
2022-09-13T21:19:11.580Z,10.30
2022-09-13T21:21:41.020Z,11.50
2022-09-13T21:24:26.988Z,10.80
2022-09-13T21:26:54.476Z,10.13
2022-09-13T21:29:21.827Z,11.02
2022-09-13T21:31:49.660Z,10.85
2022-09-13T21:34:18.938Z,11.30
2022-09-13T21:36:47.098Z,10.85
2022-09-13T21:39:16.389Z,11.52
2022-09-13T21:41:44.329Z,11.55
2022-09-13T21:44:12.004Z,11.38
2022-09-13T21:46:41.147Z,11.80
2022-09-13T21:49:10.904Z,12.18
2022-09-13T21:51:46.967Z,11.93
2022-09-13T21:54:16.999Z,12.57
2022-09-13T21:56:50.097Z,12.38
2022-09-13T21:59:19.207Z,12.35
2022-09-13T22:01:54.215Z,12.80
2022-09-13T22:04:24.723Z,13.63
2022-09-13T22:06:53.947Z,13.45
2022-09-13T22:09:27.334Z,13.13
2022-09-13T22:11:56.617Z,12.77
2022-09-13T22:14:24.754Z,14.07
2022-09-13T22:16:53.131Z,13.35
2022-09-13T22:19:24.033Z,13.57
2022-09-13T22:21:55.808Z,14.57
2022-09-13T22:24:24.881Z,13.77
2022-09-13T22:26:53.253Z,14.40
2022-09-13T22:29:21.421Z,14.75
2022-09-13T22:31:50.591Z,14.88
2022-09-13T22:34:20.753Z,14.82
2022-09-13T22:36:48.065Z,15.32
2022-09-13T22:39:16.679Z,14.50
2022-09-13T22:41:45.029Z,15.57
2022-09-13T22:44:12.748Z,15.05
2022-09-13T22:46:42.910Z,14.73
2022-09-13T22:49:18.502Z,14.73
2022-09-13T22:51:47.689Z,13.90
2022-09-13T22:54:16.603Z,12.98
2022-09-13T22:56:44.616Z,12.00
2022-09-13T22:59:17.936Z,10.98
2022-09-13T23:04:13.987Z,10.02
2022-09-13T23:06:44.097Z,9.65
2022-09-13T23:09:14.945Z,10.38
2022-09-13T23:11:42.792Z,9.13
2022-09-13T23:14:12.987Z,9.90
2022-09-13T23:16:45.621Z,9.50
2022-09-13T23:19:15.990Z,9.75
2022-09-13T23:21:43.892Z,9.13
2022-09-13T23:24:14.115Z,10.15
2022-09-13T23:26:42.774Z,9.93
2022-09-13T23:29:16.841Z,9.93
2022-09-13T23:31:46.406Z,10.35
2022-09-13T23:34:14.529Z,9.95
2022-09-13T23:36:43.325Z,9.55
2022-09-13T23:39:16.911Z,9.70
2022-09-13T23:41:45.702Z,9.85
2022-09-13T23:44:13.587Z,10.15
2022-09-13T23:46:41.095Z,9.25
2022-09-13T23:49:08.517Z,9.82
2022-09-13T23:51:36.128Z,9.93
2022-09-13T23:54:03.735Z,8.80
2022-09-13T23:56:32.249Z,9.55
2022-09-13T23:59:02.082Z,9.35
